sensor_id;sensor_type;location;lat;lon;timestamp;P1;durP1;ratioP1;P2;durP2;ratioP2
54705;SDS011;40603;48.774;8.916;2023-07-31T00:02:14;6.00;;;1.50;;
54705;SDS011;40603;48.774;8.916;2023-07-31T00:04:39;5.65;;;1.65;;
54705;SDS011;40603;48.774;8.916;2023-07-31T00:07:04;3.47;;;1.27;;
54705;SDS011;40603;48.774;8.916;2023-07-31T00:09:31;1.85;;;1.45;;
54705;SDS011;40603;48.774;8.916;2023-07-31T00:11:57;6.85;;;1.58;;
54705;SDS011;40603;48.774;8.916;2023-07-31T00:14:22;7.40;;;1.40;;
54705;SDS011;40603;48.774;8.916;2023-07-31T00:16:47;4.47;;;1.67;;
54705;SDS011;40603;48.774;8.916;2023-07-31T00:19:13;2.45;;;1.48;;
54705;SDS011;40603;48.774;8.916;2023-07-31T00:21:38;2.03;;;1.30;;
54705;SDS011;40603;48.774;8.916;2023-07-31T00:24:03;2.55;;;1.13;;
54705;SDS011;40603;48.774;8.916;2023-07-31T00:26:29;3.95;;;1.77;;
54705;SDS011;40603;48.774;8.916;2023-07-31T00:28:54;3.53;;;1.35;;
54705;SDS011;40603;48.774;8.916;2023-07-31T00:31:19;3.90;;;1.60;;
54705;SDS011;40603;48.774;8.916;2023-07-31T00:33:45;6.43;;;1.85;;
54705;SDS011;40603;48.774;8.916;2023-07-31T00:36:10;6.90;;;1.40;;
54705;SDS011;40603;48.774;8.916;2023-07-31T00:38:35;2.25;;;1.23;;
54705;SDS011;40603;48.774;8.916;2023-07-31T00:41:01;3.92;;;2.00;;
54705;SDS011;40603;48.774;8.916;2023-07-31T00:43:26;5.60;;;1.60;;
54705;SDS011;40603;48.774;8.916;2023-07-31T00:45:51;3.80;;;1.83;;
54705;SDS011;40603;48.774;8.916;2023-07-31T00:48:17;4.10;;;1.55;;
54705;SDS011;40603;48.774;8.916;2023-07-31T00:50:42;5.05;;;1.30;;
54705;SDS011;40603;48.774;8.916;2023-07-31T00:53:07;3.30;;;2.15;;
54705;SDS011;40603;48.774;8.916;2023-07-31T00:55:33;4.47;;;1.75;;
54705;SDS011;40603;48.774;8.916;2023-07-31T00:57:58;5.85;;;1.77;;
54705;SDS011;40603;48.774;8.916;2023-07-31T01:00:23;4.50;;;1.70;;
54705;SDS011;40603;48.774;8.916;2023-07-31T01:02:49;3.25;;;1.20;;
54705;SDS011;40603;48.774;8.916;2023-07-31T01:05:15;2.78;;;1.42;;
54705;SDS011;40603;48.774;8.916;2023-07-31T01:07:52;3.65;;;1.40;;
54705;SDS011;40603;48.774;8.916;2023-07-31T01:10:23;4.00;;;1.40;;
54705;SDS011;40603;48.774;8.916;2023-07-31T01:12:51;6.17;;;1.53;;
54705;SDS011;40603;48.774;8.916;2023-07-31T01:15:17;4.82;;;1.60;;
54705;SDS011;40603;48.774;8.916;2023-07-31T01:17:43;7.25;;;1.70;;
54705;SDS011;40603;48.774;8.916;2023-07-31T01:25:32;3.33;;;1.52;;
54705;SDS011;40603;48.774;8.916;2023-07-31T01:28:19;4.13;;;1.40;;
54705;SDS011;40603;48.774;8.916;2023-07-31T01:30:47;6.10;;;1.90;;
54705;SDS011;40603;48.774;8.916;2023-07-31T01:33:13;4.10;;;1.60;;
54705;SDS011;40603;48.774;8.916;2023-07-31T01:35:43;8.68;;;1.80;;
54705;SDS011;40603;48.774;8.916;2023-07-31T01:38:11;3.15;;;1.60;;
54705;SDS011;40603;48.774;8.916;2023-07-31T01:40:36;3.70;;;2.03;;
54705;SDS011;40603;48.774;8.916;2023-07-31T01:43:02;3.05;;;1.30;;
54705;SDS011;40603;48.774;8.916;2023-07-31T01:45:27;3.33;;;1.45;;
54705;SDS011;40603;48.774;8.916;2023-07-31T01:47:52;4.22;;;2.50;;
54705;SDS011;40603;48.774;8.916;2023-07-31T01:50:18;6.28;;;1.70;;
54705;SDS011;40603;48.774;8.916;2023-07-31T01:52:43;2.83;;;1.42;;
54705;SDS011;40603;48.774;8.916;2023-07-31T01:55:08;3.63;;;1.27;;
54705;SDS011;40603;48.774;8.916;2023-07-31T01:57:36;4.13;;;1.67;;
54705;SDS011;40603;48.774;8.916;2023-07-31T02:00:01;3.63;;;1.42;;
54705;SDS011;40603;48.774;8.916;2023-07-31T02:02:27;3.40;;;1.58;;
54705;SDS011;40603;48.774;8.916;2023-07-31T02:04:52;5.53;;;1.73;;
54705;SDS011;40603;48.774;8.916;2023-07-31T02:07:17;2.97;;;1.48;;
54705;SDS011;40603;48.774;8.916;2023-07-31T02:09:43;4.60;;;1.73;;
54705;SDS011;40603;48.774;8.916;2023-07-31T02:12:08;3.83;;;1.65;;
54705;SDS011;40603;48.774;8.916;2023-07-31T02:14:34;4.82;;;1.65;;
54705;SDS011;40603;48.774;8.916;2023-07-31T02:16:59;4.28;;;1.75;;
54705;SDS011;40603;48.774;8.916;2023-07-31T02:19:24;11.95;;;1.55;;
54705;SDS011;40603;48.774;8.916;2023-07-31T02:21:50;5.50;;;2.00;;
54705;SDS011;40603;48.774;8.916;2023-07-31T02:24:15;4.07;;;1.80;;
54705;SDS011;40603;48.774;8.916;2023-07-31T02:26:40;5.53;;;1.70;;
54705;SDS011;40603;48.774;8.916;2023-07-31T02:29:07;9.13;;;1.65;;
54705;SDS011;40603;48.774;8.916;2023-07-31T02:31:32;3.38;;;1.63;;
54705;SDS011;40603;48.774;8.916;2023-07-31T02:33:58;3.78;;;1.70;;
54705;SDS011;40603;48.774;8.916;2023-07-31T02:36:23;5.95;;;1.70;;
54705;SDS011;40603;48.774;8.916;2023-07-31T02:38:48;6.50;;;1.42;;
54705;SDS011;40603;48.774;8.916;2023-07-31T02:41:13;4.38;;;1.80;;
54705;SDS011;40603;48.774;8.916;2023-07-31T02:43:39;4.20;;;1.42;;
54705;SDS011;40603;48.774;8.916;2023-07-31T02:46:04;5.30;;;1.58;;
54705;SDS011;40603;48.774;8.916;2023-07-31T02:48:30;7.85;;;1.88;;
54705;SDS011;40603;48.774;8.916;2023-07-31T02:50:55;2.72;;;1.40;;
54705;SDS011;40603;48.774;8.916;2023-07-31T02:53:20;2.42;;;1.40;;
54705;SDS011;40603;48.774;8.916;2023-07-31T02:55:46;4.28;;;1.88;;
54705;SDS011;40603;48.774;8.916;2023-07-31T02:58:12;3.42;;;1.67;;
54705;SDS011;40603;48.774;8.916;2023-07-31T03:00:41;5.50;;;1.45;;
54705;SDS011;40603;48.774;8.916;2023-07-31T03:03:07;3.10;;;1.63;;
54705;SDS011;40603;48.774;8.916;2023-07-31T03:05:32;5.60;;;1.85;;
54705;SDS011;40603;48.774;8.916;2023-07-31T03:07:58;5.15;;;1.35;;
54705;SDS011;40603;48.774;8.916;2023-07-31T03:10:23;3.58;;;1.70;;
54705;SDS011;40603;48.774;8.916;2023-07-31T03:12:48;4.43;;;1.30;;
54705;SDS011;40603;48.774;8.916;2023-07-31T03:15:14;2.17;;;1.02;;
54705;SDS011;40603;48.774;8.916;2023-07-31T03:17:39;6.60;;;1.60;;
54705;SDS011;40603;48.774;8.916;2023-07-31T03:20:04;5.25;;;1.65;;
54705;SDS011;40603;48.774;8.916;2023-07-31T03:22:30;5.22;;;1.75;;
54705;SDS011;40603;48.774;8.916;2023-07-31T03:24:55;5.25;;;1.75;;
54705;SDS011;40603;48.774;8.916;2023-07-31T03:27:20;6.38;;;1.90;;
54705;SDS011;40603;48.774;8.916;2023-07-31T03:29:46;5.97;;;1.98;;
54705;SDS011;40603;48.774;8.916;2023-07-31T03:32:11;5.38;;;1.80;;
54705;SDS011;40603;48.774;8.916;2023-07-31T03:34:36;5.07;;;1.60;;
54705;SDS011;40603;48.774;8.916;2023-07-31T03:37:02;3.60;;;2.03;;
54705;SDS011;40603;48.774;8.916;2023-07-31T03:39:29;7.45;;;1.85;;
54705;SDS011;40603;48.774;8.916;2023-07-31T03:41:55;5.13;;;1.50;;
54705;SDS011;40603;48.774;8.916;2023-07-31T03:44:20;3.35;;;1.63;;
54705;SDS011;40603;48.774;8.916;2023-07-31T03:46:45;4.18;;;1.55;;
54705;SDS011;40603;48.774;8.916;2023-07-31T03:49:11;2.80;;;1.20;;
54705;SDS011;40603;48.774;8.916;2023-07-31T03:51:36;8.52;;;1.70;;
54705;SDS011;40603;48.774;8.916;2023-07-31T03:54:01;6.93;;;1.80;;
54705;SDS011;40603;48.774;8.916;2023-07-31T03:56:26;3.17;;;1.50;;
54705;SDS011;40603;48.774;8.916;2023-07-31T03:58:52;2.45;;;1.10;;
54705;SDS011;40603;48.774;8.916;2023-07-31T04:01:17;4.22;;;1.50;;
54705;SDS011;40603;48.774;8.916;2023-07-31T04:03:44;5.85;;;1.52;;
54705;SDS011;40603;48.774;8.916;2023-07-31T04:06:09;5.25;;;1.92;;
54705;SDS011;40603;48.774;8.916;2023-07-31T04:08:35;2.60;;;1.70;;
54705;SDS011;40603;48.774;8.916;2023-07-31T04:11:00;3.28;;;1.73;;
54705;SDS011;40603;48.774;8.916;2023-07-31T04:13:26;7.05;;;1.92;;
54705;SDS011;40603;48.774;8.916;2023-07-31T04:15:52;3.95;;;1.90;;
54705;SDS011;40603;48.774;8.916;2023-07-31T04:18:17;4.25;;;2.22;;
54705;SDS011;40603;48.774;8.916;2023-07-31T04:20:43;6.43;;;1.75;;
54705;SDS011;40603;48.774;8.916;2023-07-31T04:23:08;4.03;;;1.58;;
54705;SDS011;40603;48.774;8.916;2023-07-31T04:25:33;4.10;;;1.80;;
54705;SDS011;40603;48.774;8.916;2023-07-31T04:28:00;4.45;;;1.90;;
54705;SDS011;40603;48.774;8.916;2023-07-31T04:30:25;4.65;;;1.70;;
54705;SDS011;40603;48.774;8.916;2023-07-31T04:32:50;2.15;;;1.50;;
54705;SDS011;40603;48.774;8.916;2023-07-31T04:35:15;2.80;;;1.30;;
54705;SDS011;40603;48.774;8.916;2023-07-31T04:37:41;3.50;;;1.60;;
54705;SDS011;40603;48.774;8.916;2023-07-31T04:40:06;4.43;;;1.40;;
54705;SDS011;40603;48.774;8.916;2023-07-31T04:42:33;4.05;;;1.65;;
54705;SDS011;40603;48.774;8.916;2023-07-31T04:44:59;3.53;;;1.30;;
54705;SDS011;40603;48.774;8.916;2023-07-31T04:47:24;4.85;;;1.70;;
54705;SDS011;40603;48.774;8.916;2023-07-31T04:49:50;4.22;;;2.13;;
54705;SDS011;40603;48.774;8.916;2023-07-31T04:52:15;6.10;;;1.92;;
54705;SDS011;40603;48.774;8.916;2023-07-31T04:54:40;2.45;;;1.70;;
54705;SDS011;40603;48.774;8.916;2023-07-31T04:57:06;2.85;;;1.23;;
54705;SDS011;40603;48.774;8.916;2023-07-31T04:59:31;3.25;;;1.67;;
54705;SDS011;40603;48.774;8.916;2023-07-31T05:01:56;5.45;;;1.58;;
54705;SDS011;40603;48.774;8.916;2023-07-31T05:04:22;3.72;;;1.58;;
54705;SDS011;40603;48.774;8.916;2023-07-31T05:06:47;2.90;;;1.55;;
54705;SDS011;40603;48.774;8.916;2023-07-31T05:09:12;3.05;;;1.30;;
54705;SDS011;40603;48.774;8.916;2023-07-31T05:11:38;7.63;;;2.10;;
54705;SDS011;40603;48.774;8.916;2023-07-31T05:14:05;7.72;;;1.67;;
54705;SDS011;40603;48.774;8.916;2023-07-31T05:16:30;7.75;;;1.98;;
54705;SDS011;40603;48.774;8.916;2023-07-31T05:18:55;2.95;;;1.63;;
54705;SDS011;40603;48.774;8.916;2023-07-31T05:21:21;4.13;;;1.60;;
54705;SDS011;40603;48.774;8.916;2023-07-31T05:23:46;4.50;;;2.05;;
54705;SDS011;40603;48.774;8.916;2023-07-31T05:26:12;5.47;;;1.70;;
54705;SDS011;40603;48.774;8.916;2023-07-31T05:28:38;3.58;;;1.58;;
54705;SDS011;40603;48.774;8.916;2023-07-31T05:31:03;4.13;;;1.77;;
54705;SDS011;40603;48.774;8.916;2023-07-31T05:33:29;5.15;;;1.70;;
54705;SDS011;40603;48.774;8.916;2023-07-31T05:35:55;6.90;;;1.80;;
54705;SDS011;40603;48.774;8.916;2023-07-31T05:38:20;3.55;;;1.50;;
54705;SDS011;40603;48.774;8.916;2023-07-31T05:40:46;7.40;;;1.55;;
54705;SDS011;40603;48.774;8.916;2023-07-31T05:43:11;4.10;;;1.60;;
54705;SDS011;40603;48.774;8.916;2023-07-31T05:45:37;3.53;;;1.65;;
54705;SDS011;40603;48.774;8.916;2023-07-31T05:48:03;3.35;;;1.55;;
54705;SDS011;40603;48.774;8.916;2023-07-31T05:50:28;4.40;;;1.30;;
54705;SDS011;40603;48.774;8.916;2023-07-31T05:52:54;5.68;;;1.60;;
54705;SDS011;40603;48.774;8.916;2023-07-31T05:55:20;4.15;;;1.50;;
54705;SDS011;40603;48.774;8.916;2023-07-31T05:57:46;3.45;;;1.40;;
54705;SDS011;40603;48.774;8.916;2023-07-31T06:00:11;5.28;;;1.58;;
54705;SDS011;40603;48.774;8.916;2023-07-31T06:02:37;2.83;;;1.77;;
54705;SDS011;40603;48.774;8.916;2023-07-31T06:05:03;4.38;;;1.63;;
54705;SDS011;40603;48.774;8.916;2023-07-31T06:07:30;6.53;;;1.65;;
54705;SDS011;40603;48.774;8.916;2023-07-31T06:09:56;4.97;;;1.80;;
54705;SDS011;40603;48.774;8.916;2023-07-31T06:12:22;4.20;;;1.80;;
54705;SDS011;40603;48.774;8.916;2023-07-31T06:14:47;5.07;;;1.77;;
54705;SDS011;40603;48.774;8.916;2023-07-31T06:17:13;2.80;;;1.77;;
54705;SDS011;40603;48.774;8.916;2023-07-31T06:19:38;2.85;;;1.38;;
54705;SDS011;40603;48.774;8.916;2023-07-31T06:22:03;4.78;;;1.63;;
54705;SDS011;40603;48.774;8.916;2023-07-31T06:24:29;4.13;;;1.40;;
54705;SDS011;40603;48.774;8.916;2023-07-31T06:26:54;4.88;;;2.00;;
54705;SDS011;40603;48.774;8.916;2023-07-31T06:29:20;6.75;;;1.55;;
54705;SDS011;40603;48.774;8.916;2023-07-31T06:31:45;7.60;;;2.10;;
54705;SDS011;40603;48.774;8.916;2023-07-31T06:34:10;5.22;;;1.70;;
54705;SDS011;40603;48.774;8.916;2023-07-31T06:36:36;6.38;;;2.00;;
54705;SDS011;40603;48.774;8.916;2023-07-31T06:39:01;4.25;;;1.77;;
54705;SDS011;40603;48.774;8.916;2023-07-31T06:41:26;7.78;;;1.60;;
54705;SDS011;40603;48.774;8.916;2023-07-31T06:43:52;4.75;;;1.80;;
54705;SDS011;40603;48.774;8.916;2023-07-31T06:46:17;7.07;;;1.83;;
54705;SDS011;40603;48.774;8.916;2023-07-31T06:48:42;6.20;;;2.92;;
54705;SDS011;40603;48.774;8.916;2023-07-31T06:51:07;7.35;;;2.38;;
54705;SDS011;40603;48.774;8.916;2023-07-31T06:53:33;3.13;;;1.67;;
54705;SDS011;40603;48.774;8.916;2023-07-31T06:55:58;3.78;;;1.85;;
54705;SDS011;40603;48.774;8.916;2023-07-31T06:58:23;4.40;;;1.40;;
54705;SDS011;40603;48.774;8.916;2023-07-31T07:00:49;8.48;;;2.22;;
54705;SDS011;40603;48.774;8.916;2023-07-31T07:03:14;4.40;;;1.67;;
54705;SDS011;40603;48.774;8.916;2023-07-31T07:05:41;9.27;;;1.80;;
54705;SDS011;40603;48.774;8.916;2023-07-31T07:08:06;8.15;;;2.15;;
54705;SDS011;40603;48.774;8.916;2023-07-31T07:10:31;3.08;;;1.60;;
54705;SDS011;40603;48.774;8.916;2023-07-31T07:12:56;6.03;;;1.65;;
54705;SDS011;40603;48.774;8.916;2023-07-31T07:15:22;4.40;;;2.00;;
54705;SDS011;40603;48.774;8.916;2023-07-31T07:17:47;5.65;;;1.88;;
54705;SDS011;40603;48.774;8.916;2023-07-31T07:20:12;5.65;;;2.42;;
54705;SDS011;40603;48.774;8.916;2023-07-31T07:22:38;3.83;;;1.55;;
54705;SDS011;40603;48.774;8.916;2023-07-31T07:25:03;3.80;;;1.58;;
54705;SDS011;40603;48.774;8.916;2023-07-31T07:27:29;6.10;;;2.08;;
54705;SDS011;40603;48.774;8.916;2023-07-31T07:29:55;3.00;;;1.67;;
54705;SDS011;40603;48.774;8.916;2023-07-31T07:32:20;7.80;;;2.10;;
54705;SDS011;40603;48.774;8.916;2023-07-31T07:34:46;4.90;;;1.85;;
54705;SDS011;40603;48.774;8.916;2023-07-31T07:37:12;2.92;;;1.70;;
54705;SDS011;40603;48.774;8.916;2023-07-31T07:39:38;7.43;;;2.05;;
54705;SDS011;40603;48.774;8.916;2023-07-31T07:42:03;6.20;;;2.00;;
54705;SDS011;40603;48.774;8.916;2023-07-31T07:44:28;4.70;;;1.70;;
54705;SDS011;40603;48.774;8.916;2023-07-31T07:46:53;5.60;;;1.65;;
54705;SDS011;40603;48.774;8.916;2023-07-31T07:49:19;3.67;;;1.65;;
54705;SDS011;40603;48.774;8.916;2023-07-31T07:51:47;7.03;;;1.88;;
54705;SDS011;40603;48.774;8.916;2023-07-31T07:54:12;4.80;;;1.90;;
54705;SDS011;40603;48.774;8.916;2023-07-31T07:56:38;4.95;;;1.98;;
54705;SDS011;40603;48.774;8.916;2023-07-31T07:59:04;6.43;;;2.30;;
54705;SDS011;40603;48.774;8.916;2023-07-31T08:01:29;4.13;;;1.80;;
54705;SDS011;40603;48.774;8.916;2023-07-31T08:03:54;4.13;;;1.42;;
54705;SDS011;40603;48.774;8.916;2023-07-31T08:06:19;6.65;;;1.85;;
54705;SDS011;40603;48.774;8.916;2023-07-31T08:08:45;5.97;;;1.77;;
54705;SDS011;40603;48.774;8.916;2023-07-31T08:11:10;6.03;;;2.00;;
54705;SDS011;40603;48.774;8.916;2023-07-31T08:13:35;7.18;;;2.00;;
54705;SDS011;40603;48.774;8.916;2023-07-31T08:16:02;4.53;;;2.17;;
54705;SDS011;40603;48.774;8.916;2023-07-31T08:18:28;3.97;;;1.70;;
54705;SDS011;40603;48.774;8.916;2023-07-31T08:20:53;5.85;;;1.63;;
54705;SDS011;40603;48.774;8.916;2023-07-31T08:23:18;4.32;;;2.00;;
54705;SDS011;40603;48.774;8.916;2023-07-31T08:25:44;5.53;;;1.92;;
54705;SDS011;40603;48.774;8.916;2023-07-31T08:28:10;5.25;;;2.05;;
54705;SDS011;40603;48.774;8.916;2023-07-31T08:30:35;3.90;;;1.80;;
54705;SDS011;40603;48.774;8.916;2023-07-31T08:33:00;4.97;;;1.98;;
54705;SDS011;40603;48.774;8.916;2023-07-31T08:35:26;6.03;;;1.77;;
54705;SDS011;40603;48.774;8.916;2023-07-31T08:37:53;6.75;;;2.00;;
54705;SDS011;40603;48.774;8.916;2023-07-31T08:40:18;5.13;;;1.73;;
54705;SDS011;40603;48.774;8.916;2023-07-31T08:42:44;2.85;;;1.60;;
54705;SDS011;40603;48.774;8.916;2023-07-31T08:45:14;3.00;;;1.67;;
54705;SDS011;40603;48.774;8.916;2023-07-31T08:47:41;3.88;;;2.40;;
54705;SDS011;40603;48.774;8.916;2023-07-31T08:50:09;3.45;;;1.90;;
54705;SDS011;40603;48.774;8.916;2023-07-31T08:52:35;4.22;;;1.77;;
54705;SDS011;40603;48.774;8.916;2023-07-31T08:55:00;5.07;;;1.90;;
54705;SDS011;40603;48.774;8.916;2023-07-31T08:57:25;8.98;;;2.40;;
54705;SDS011;40603;48.774;8.916;2023-07-31T08:59:51;4.82;;;2.25;;
54705;SDS011;40603;48.774;8.916;2023-07-31T09:02:16;6.60;;;3.00;;
54705;SDS011;40603;48.774;8.916;2023-07-31T09:04:43;5.75;;;2.08;;
54705;SDS011;40603;48.774;8.916;2023-07-31T09:07:08;7.03;;;2.25;;
54705;SDS011;40603;48.774;8.916;2023-07-31T09:09:34;9.90;;;1.92;;
54705;SDS011;40603;48.774;8.916;2023-07-31T09:12:00;5.57;;;2.00;;
54705;SDS011;40603;48.774;8.916;2023-07-31T09:14:25;8.82;;;2.25;;
54705;SDS011;40603;48.774;8.916;2023-07-31T09:16:51;7.55;;;2.42;;
54705;SDS011;40603;48.774;8.916;2023-07-31T09:19:24;9.73;;;2.75;;
54705;SDS011;40603;48.774;8.916;2023-07-31T09:22:01;5.45;;;1.85;;
54705;SDS011;40603;48.774;8.916;2023-07-31T09:24:27;8.90;;;2.42;;
54705;SDS011;40603;48.774;8.916;2023-07-31T09:26:54;8.65;;;2.58;;
54705;SDS011;40603;48.774;8.916;2023-07-31T09:29:23;6.45;;;1.80;;
54705;SDS011;40603;48.774;8.916;2023-07-31T09:31:49;8.40;;;2.05;;
54705;SDS011;40603;48.774;8.916;2023-07-31T09:34:15;10.75;;;2.10;;
54705;SDS011;40603;48.774;8.916;2023-07-31T09:36:44;4.80;;;1.95;;
54705;SDS011;40603;48.774;8.916;2023-07-31T09:39:11;6.28;;;2.15;;
54705;SDS011;40603;48.774;8.916;2023-07-31T09:41:37;3.95;;;2.13;;
54705;SDS011;40603;48.774;8.916;2023-07-31T09:44:03;5.78;;;2.03;;
54705;SDS011;40603;48.774;8.916;2023-07-31T09:46:29;6.25;;;2.30;;
54705;SDS011;40603;48.774;8.916;2023-07-31T09:49:05;6.28;;;2.13;;
54705;SDS011;40603;48.774;8.916;2023-07-31T09:51:34;5.03;;;2.08;;
54705;SDS011;40603;48.774;8.916;2023-07-31T09:54:03;4.97;;;1.92;;
54705;SDS011;40603;48.774;8.916;2023-07-31T09:56:36;6.88;;;2.30;;
54705;SDS011;40603;48.774;8.916;2023-07-31T09:59:04;6.10;;;2.50;;
54705;SDS011;40603;48.774;8.916;2023-07-31T10:01:30;6.68;;;2.58;;
54705;SDS011;40603;48.774;8.916;2023-07-31T10:03:55;4.93;;;2.33;;
54705;SDS011;40603;48.774;8.916;2023-07-31T10:06:21;4.15;;;2.08;;
54705;SDS011;40603;48.774;8.916;2023-07-31T10:08:47;7.40;;;2.30;;
54705;SDS011;40603;48.774;8.916;2023-07-31T10:11:16;7.75;;;2.20;;
54705;SDS011;40603;48.774;8.916;2023-07-31T10:13:42;6.30;;;2.05;;
54705;SDS011;40603;48.774;8.916;2023-07-31T10:16:07;7.75;;;2.50;;
54705;SDS011;40603;48.774;8.916;2023-07-31T10:18:33;5.75;;;2.28;;
54705;SDS011;40603;48.774;8.916;2023-07-31T10:21:00;6.40;;;2.10;;
54705;SDS011;40603;48.774;8.916;2023-07-31T10:23:26;4.30;;;2.30;;
54705;SDS011;40603;48.774;8.916;2023-07-31T10:25:52;5.93;;;2.47;;
54705;SDS011;40603;48.774;8.916;2023-07-31T10:28:19;5.93;;;2.83;;
54705;SDS011;40603;48.774;8.916;2023-07-31T10:30:45;3.53;;;2.10;;
54705;SDS011;40603;48.774;8.916;2023-07-31T10:33:11;3.33;;;1.90;;
54705;SDS011;40603;48.774;8.916;2023-07-31T10:35:36;4.15;;;1.90;;
54705;SDS011;40603;48.774;8.916;2023-07-31T10:38:09;3.70;;;1.92;;
54705;SDS011;40603;48.774;8.916;2023-07-31T10:40:36;5.93;;;2.30;;
54705;SDS011;40603;48.774;8.916;2023-07-31T10:43:02;7.13;;;2.22;;
54705;SDS011;40603;48.774;8.916;2023-07-31T10:45:37;4.22;;;2.10;;
54705;SDS011;40603;48.774;8.916;2023-07-31T10:48:15;5.05;;;2.20;;
54705;SDS011;40603;48.774;8.916;2023-07-31T10:50:51;3.22;;;2.00;;
54705;SDS011;40603;48.774;8.916;2023-07-31T10:53:24;5.32;;;2.30;;
54705;SDS011;40603;48.774;8.916;2023-07-31T10:55:50;4.95;;;2.05;;
54705;SDS011;40603;48.774;8.916;2023-07-31T10:58:19;5.35;;;1.83;;
54705;SDS011;40603;48.774;8.916;2023-07-31T11:00:46;5.20;;;2.30;;
54705;SDS011;40603;48.774;8.916;2023-07-31T11:03:18;3.75;;;1.88;;
54705;SDS011;40603;48.774;8.916;2023-07-31T11:05:55;5.55;;;2.47;;
54705;SDS011;40603;48.774;8.916;2023-07-31T11:08:26;4.32;;;2.30;;
54705;SDS011;40603;48.774;8.916;2023-07-31T11:13:27;5.72;;;2.50;;
54705;SDS011;40603;48.774;8.916;2023-07-31T11:15:52;4.90;;;2.00;;
54705;SDS011;40603;48.774;8.916;2023-07-31T11:18:18;6.03;;;2.60;;
54705;SDS011;40603;48.774;8.916;2023-07-31T11:20:43;6.72;;;2.30;;
54705;SDS011;40603;48.774;8.916;2023-07-31T11:23:09;5.82;;;2.28;;
54705;SDS011;40603;48.774;8.916;2023-07-31T11:25:39;6.15;;;2.50;;
54705;SDS011;40603;48.774;8.916;2023-07-31T11:28:12;5.15;;;2.20;;
54705;SDS011;40603;48.774;8.916;2023-07-31T11:30:38;5.43;;;2.85;;
54705;SDS011;40603;48.774;8.916;2023-07-31T11:33:06;8.35;;;2.45;;
54705;SDS011;40603;48.774;8.916;2023-07-31T11:35:32;10.13;;;2.72;;
54705;SDS011;40603;48.774;8.916;2023-07-31T11:37:58;4.88;;;2.58;;
54705;SDS011;40603;48.774;8.916;2023-07-31T11:40:24;5.32;;;2.28;;
54705;SDS011;40603;48.774;8.916;2023-07-31T11:42:54;6.00;;;2.45;;
54705;SDS011;40603;48.774;8.916;2023-07-31T11:45:24;7.32;;;2.72;;
54705;SDS011;40603;48.774;8.916;2023-07-31T11:47:51;6.18;;;2.38;;
54705;SDS011;40603;48.774;8.916;2023-07-31T11:50:17;6.13;;;2.38;;
54705;SDS011;40603;48.774;8.916;2023-07-31T11:52:44;4.13;;;2.33;;
54705;SDS011;40603;48.774;8.916;2023-07-31T11:55:09;4.28;;;2.65;;
54705;SDS011;40603;48.774;8.916;2023-07-31T11:57:39;5.28;;;2.45;;
54705;SDS011;40603;48.774;8.916;2023-07-31T12:00:06;7.30;;;2.88;;
54705;SDS011;40603;48.774;8.916;2023-07-31T12:02:32;4.78;;;2.30;;
54705;SDS011;40603;48.774;8.916;2023-07-31T12:04:57;7.28;;;2.45;;
54705;SDS011;40603;48.774;8.916;2023-07-31T12:07:23;6.78;;;3.20;;
54705;SDS011;40603;48.774;8.916;2023-07-31T12:09:55;6.38;;;2.80;;
54705;SDS011;40603;48.774;8.916;2023-07-31T12:12:21;4.75;;;2.50;;
54705;SDS011;40603;48.774;8.916;2023-07-31T12:14:50;4.68;;;2.72;;
54705;SDS011;40603;48.774;8.916;2023-07-31T12:17:16;6.47;;;2.20;;
54705;SDS011;40603;48.774;8.916;2023-07-31T12:19:42;4.05;;;2.20;;
54705;SDS011;40603;48.774;8.916;2023-07-31T12:22:11;8.10;;;2.50;;
54705;SDS011;40603;48.774;8.916;2023-07-31T12:24:38;7.03;;;2.20;;
54705;SDS011;40603;48.774;8.916;2023-07-31T12:27:08;5.35;;;2.70;;
54705;SDS011;40603;48.774;8.916;2023-07-31T12:29:35;3.90;;;2.22;;
54705;SDS011;40603;48.774;8.916;2023-07-31T12:32:01;4.85;;;2.08;;
54705;SDS011;40603;48.774;8.916;2023-07-31T12:34:26;6.70;;;2.20;;
54705;SDS011;40603;48.774;8.916;2023-07-31T12:36:53;4.28;;;2.22;;
54705;SDS011;40603;48.774;8.916;2023-07-31T12:39:19;6.20;;;2.83;;
54705;SDS011;40603;48.774;8.916;2023-07-31T12:41:44;4.70;;;2.35;;
54705;SDS011;40603;48.774;8.916;2023-07-31T12:44:09;5.18;;;2.28;;
54705;SDS011;40603;48.774;8.916;2023-07-31T12:46:35;4.85;;;2.38;;
54705;SDS011;40603;48.774;8.916;2023-07-31T12:49:00;4.82;;;2.38;;
54705;SDS011;40603;48.774;8.916;2023-07-31T12:51:25;5.45;;;2.45;;
54705;SDS011;40603;48.774;8.916;2023-07-31T12:53:51;4.05;;;2.08;;
54705;SDS011;40603;48.774;8.916;2023-07-31T12:56:16;3.08;;;2.05;;
54705;SDS011;40603;48.774;8.916;2023-07-31T12:58:42;5.00;;;2.42;;
54705;SDS011;40603;48.774;8.916;2023-07-31T13:01:07;3.75;;;2.28;;
54705;SDS011;40603;48.774;8.916;2023-07-31T13:03:33;5.13;;;2.22;;
54705;SDS011;40603;48.774;8.916;2023-07-31T13:05:58;3.95;;;1.88;;
54705;SDS011;40603;48.774;8.916;2023-07-31T13:08:23;4.30;;;1.92;;
54705;SDS011;40603;48.774;8.916;2023-07-31T13:10:49;5.43;;;2.15;;
54705;SDS011;40603;48.774;8.916;2023-07-31T13:13:14;4.35;;;1.92;;
54705;SDS011;40603;48.774;8.916;2023-07-31T13:15:39;6.38;;;2.25;;
54705;SDS011;40603;48.774;8.916;2023-07-31T13:18:05;4.68;;;2.65;;
54705;SDS011;40603;48.774;8.916;2023-07-31T13:20:30;5.47;;;2.55;;
54705;SDS011;40603;48.774;8.916;2023-07-31T13:22:55;5.82;;;2.13;;
54705;SDS011;40603;48.774;8.916;2023-07-31T13:25:21;5.75;;;1.90;;
54705;SDS011;40603;48.774;8.916;2023-07-31T13:27:46;6.97;;;2.50;;
54705;SDS011;40603;48.774;8.916;2023-07-31T13:30:11;4.57;;;2.20;;
54705;SDS011;40603;48.774;8.916;2023-07-31T13:32:37;4.35;;;2.15;;
54705;SDS011;40603;48.774;8.916;2023-07-31T13:35:08;6.45;;;2.30;;
54705;SDS011;40603;48.774;8.916;2023-07-31T13:37:34;2.38;;;2.05;;
54705;SDS011;40603;48.774;8.916;2023-07-31T13:39:59;5.65;;;2.47;;
54705;SDS011;40603;48.774;8.916;2023-07-31T13:42:25;6.05;;;2.47;;
54705;SDS011;40603;48.774;8.916;2023-07-31T13:44:50;4.40;;;2.50;;
54705;SDS011;40603;48.774;8.916;2023-07-31T13:47:17;3.83;;;2.15;;
54705;SDS011;40603;48.774;8.916;2023-07-31T13:49:42;5.38;;;2.72;;
54705;SDS011;40603;48.774;8.916;2023-07-31T13:52:08;6.60;;;2.58;;
54705;SDS011;40603;48.774;8.916;2023-07-31T13:54:33;3.72;;;1.92;;
54705;SDS011;40603;48.774;8.916;2023-07-31T13:56:59;4.05;;;2.15;;
54705;SDS011;40603;48.774;8.916;2023-07-31T13:59:25;5.63;;;2.58;;
54705;SDS011;40603;48.774;8.916;2023-07-31T14:01:50;7.38;;;2.78;;
54705;SDS011;40603;48.774;8.916;2023-07-31T14:04:16;5.93;;;2.28;;
54705;SDS011;40603;48.774;8.916;2023-07-31T14:06:42;3.85;;;2.15;;
54705;SDS011;40603;48.774;8.916;2023-07-31T14:09:07;7.00;;;2.22;;
54705;SDS011;40603;48.774;8.916;2023-07-31T14:11:33;6.82;;;2.20;;
54705;SDS011;40603;48.774;8.916;2023-07-31T14:13:58;3.72;;;2.20;;
54705;SDS011;40603;48.774;8.916;2023-07-31T14:16:23;5.18;;;2.67;;
54705;SDS011;40603;48.774;8.916;2023-07-31T14:18:49;4.20;;;2.17;;
54705;SDS011;40603;48.774;8.916;2023-07-31T14:21:14;3.53;;;2.25;;
54705;SDS011;40603;48.774;8.916;2023-07-31T14:23:40;4.32;;;2.40;;
54705;SDS011;40603;48.774;8.916;2023-07-31T14:26:05;5.35;;;2.17;;
54705;SDS011;40603;48.774;8.916;2023-07-31T14:28:30;8.57;;;2.72;;
54705;SDS011;40603;48.774;8.916;2023-07-31T14:30:56;5.55;;;2.55;;
54705;SDS011;40603;48.774;8.916;2023-07-31T14:33:21;4.95;;;2.10;;
54705;SDS011;40603;48.774;8.916;2023-07-31T14:35:46;2.88;;;1.98;;
54705;SDS011;40603;48.774;8.916;2023-07-31T14:38:12;3.78;;;2.00;;
54705;SDS011;40603;48.774;8.916;2023-07-31T14:40:37;5.28;;;2.10;;
54705;SDS011;40603;48.774;8.916;2023-07-31T14:43:03;3.35;;;2.13;;
54705;SDS011;40603;48.774;8.916;2023-07-31T14:45:29;2.35;;;1.83;;
54705;SDS011;40603;48.774;8.916;2023-07-31T14:47:54;5.22;;;2.40;;
54705;SDS011;40603;48.774;8.916;2023-07-31T14:50:20;5.85;;;2.00;;